Shibin el-Kom, Egypt
Current Conditions -  °F | °C
As of 9:00 AM on Sunday 26 Oct 2014 (Local Time) from HECA Reporting Station
Haze Haze  
Wind Chill: 24°   Ceiling: Unl
Heat Index: 24°   Visibility: 1.2mi
Dew Point: 15°   Wind: 0mph
Humidity: 57%   Direction: NA
Pressure: 30"   Gusts: NA
Location:  30.59°N, 30.9°E
Report Text: HECA 260700Z 00000KT 2000 HZ NSC 24/15 Q1016 NOSIG
Loading
Personal Weather Stations






























Interactive Weather Map
Tropical Storm Tracking
New forecast layout! Learn more

10-Day Weather Forecast

Advertisements
Track Severe Weather on mobile